Accueil
METAR-TAF:

METAR-TAF

Aéroports :

Aéroport du Gloucestershire

Gloucester, Angleterre

latitude: 51-54N, longitude: 002-10W, altitude: 29 m

Observation

Le bulletin a été fait il y a 11 heures et 23 minutes, à 16:50 UTC
Vent 4 kt de ouest/nord-ouest, variant entre ouest/sud-ouest et nord/nord-ouest
Température 20°C
Humidité 46%
Pression 1027 hPa
Visibilité 10 km ou plus
Nuages épars à une hauteur de 4200 ft

METAR: EGBJ 111650Z 29004KT 250V340 9999 SCT042 20/08 Q1027

Heure: 05:13 (04:13 UTC)

Prévision

Le bulletin a été fait il y a 14 heures et 19 minutes, à 13:54 UTC
Prévision valable du 11 à 15 UTC au 11 à 17 UTC
Vent 7 kt de nord-ouest
Visibilité 10 km ou plus
Quelques nuages à une hauteur de 4000 ft

TAF: EGBJ 111354Z 1115/1117 31007KT 9999 FEW040

Observations et prévisions météorologiques de plus de 4000 aéroports (messages METAR et TAF).

Les stations disponibles sont représentées par des disques jaunes et rouges sur la carte.

Passer la souris dessus pour voir le nom de la station.

Cliquer dessus pour voir les observations et prévisions météorologiques.

Pour changer de carte: cliquez sur les boutons verts avec une croix noire pour zoomer, sur le bouton vert avec un tiret pour effectuer un zoom arrière, ou sur les flèches vertes pour les cartes adjacentes.


METAR-TAF: